Time;durP1;ratioP1;P1;durP2;ratioP2;P2;SDS_P1;SDS_P2;PMS_P1;PMS_P2;Temp;Humidity;BMP_temperature;BMP_pressure;BME280_temperature;BME280_humidity;BME280_pressure;Samples;Min_cycle;Max_cycle;Signal;HPM_P1;HPM_P2
2022/05/31 00:01:57;;;;;;;82.93;52.65;;;18.10;60.00;;;;;;4914224;28;99614;-43
2022/05/31 00:04:23;;;;;;;84.50;53.30;;;18.10;60.00;;;;;;4905185;28;95250;-43
2022/05/31 00:06:48;;;;;;;83.82;53.17;;;18.10;59.90;;;;;;4916587;28;95283;-42
2022/05/31 00:09:14;;;;;;;84.63;53.25;;;18.10;59.80;;;;;;4912794;28;95307;-42
2022/05/31 00:11:43;;;;;;;84.95;53.40;;;18.10;59.80;;;;;;4913526;28;97650;-43
2022/05/31 00:14:11;;;;;;;83.30;53.05;;;18.10;60.00;;;;;;4917621;28;95337;-43
2022/05/31 00:16:36;;;;;;;83.65;52.83;;;18.00;59.90;;;;;;4918705;28;100380;-41
2022/05/31 00:19:03;;;;;;;83.53;52.95;;;18.10;60.00;;;;;;4909065;28;95084;-42
2022/05/31 00:21:51;;;;;;;82.75;52.72;;;18.10;59.80;;;;;;4916135;28;96667;-42
2022/05/31 00:24:19;;;;;;;83.80;52.75;;;18.10;60.00;;;;;;4904113;28;96989;-41
2022/05/31 00:26:46;;;;;;;83.20;52.85;;;18.00;59.90;;;;;;4922939;28;96009;-44
2022/05/31 00:29:12;;;;;;;83.78;52.58;;;18.00;59.90;;;;;;4907711;28;96988;-40
2022/05/31 00:31:43;;;;;;;82.97;52.80;;;18.10;59.90;;;;;;4908856;28;97583;-40
2022/05/31 00:34:09;;;;;;;86.30;52.80;;;18.00;59.90;;;;;;4918029;28;96948;-43
2022/05/31 00:36:37;;;;;;;82.68;52.78;;;18.00;59.90;;;;;;4909589;28;95239;-43
2022/05/31 00:39:04;;;;;;;83.95;52.85;;;18.00;60.00;;;;;;4904945;28;96679;-42
2022/05/31 00:41:29;;;;;;;83.25;53.05;;;18.00;59.70;;;;;;4915512;28;96283;-43
2022/05/31 00:44:00;;;;;;;83.90;52.70;;;18.00;59.80;;;;;;4913736;28;95683;-41
2022/05/31 00:46:32;;;;;;;82.60;52.33;;;18.00;60.10;;;;;;4915883;28;97298;-42
2022/05/31 00:49:02;;;;;;;82.13;52.65;;;18.00;60.00;;;;;;4915468;28;96903;-42
2022/05/31 00:51:45;;;;;;;82.50;52.55;;;18.00;59.70;;;;;;4910850;28;96000;-43
2022/05/31 00:54:16;;;;;;;82.72;52.67;;;18.00;60.00;;;;;;4902488;28;100869;-42
2022/05/31 00:56:44;;;;;;;82.43;52.38;;;17.90;60.00;;;;;;4918353;28;95411;-42
2022/05/31 00:59:28;;;;;;;83.30;52.50;;;17.90;59.90;;;;;;4913503;28;98635;-40
2022/05/31 01:01:56;;;;;;;82.05;52.38;;;17.90;59.90;;;;;;4915409;28;95552;-40
2022/05/31 01:04:45;;;;;;;82.15;52.33;;;17.90;59.90;;;;;;4919066;28;94836;-41
2022/05/31 01:07:11;;;;;;;82.25;52.42;;;17.90;60.20;;;;;;4916639;28;95148;-44
2022/05/31 01:09:37;;;;;;;81.97;52.65;;;17.90;60.00;;;;;;4907582;28;97057;-42
2022/05/31 01:12:04;;;;;;;81.30;52.10;;;17.90;60.00;;;;;;4920156;28;101463;-42
2022/05/31 01:14:30;;;;;;;82.55;52.20;;;17.90;60.20;;;;;;4916755;28;95481;-42
2022/05/31 01:17:18;;;;;;;83.07;52.53;;;17.80;60.00;;;;;;4906833;28;94995;-42
2022/05/31 01:19:56;;;;;;;82.35;52.47;;;17.80;60.10;;;;;;4919286;28;98870;-43
2022/05/31 01:22:37;;;;;;;83.05;52.22;;;17.90;60.00;;;;;;4922052;28;96109;-42
2022/05/31 01:25:24;;;;;;;81.43;52.20;;;17.90;60.10;;;;;;4909156;28;98649;-44
2022/05/31 01:28:25;;;;;;;81.20;52.10;;;17.90;60.00;;;;;;4913657;28;103544;-42
2022/05/31 01:31:19;;;;;;;82.45;52.25;;;17.80;59.90;;;;;;4917330;28;94868;-41
2022/05/31 01:34:09;;;;;;;82.10;52.25;;;17.80;60.20;;;;;;4919644;28;95378;-42
2022/05/31 01:36:46;;;;;;;80.68;52.13;;;17.80;60.00;;;;;;4913093;28;95565;-42
2022/05/31 01:39:33;;;;;;;81.05;52.15;;;17.80;60.10;;;;;;4915902;28;96079;-44
2022/05/31 01:42:01;;;;;;;82.65;52.47;;;17.80;60.30;;;;;;4911882;28;96746;-43
2022/05/31 01:44:30;;;;;;;80.47;52.03;;;17.80;60.10;;;;;;4922072;28;95510;-40
2022/05/31 01:46:59;;;;;;;82.28;52.50;;;17.80;60.30;;;;;;4914649;28;95666;-41
2022/05/31 01:49:32;;;;;;;81.32;52.05;;;17.80;60.00;;;;;;4919155;28;95009;-41
2022/05/31 01:51:59;;;;;;;81.68;52.08;;;17.80;60.10;;;;;;4918849;28;95449;-46
2022/05/31 01:54:26;;;;;;;82.18;52.50;;;17.80;59.90;;;;;;4908730;28;95196;-41
2022/05/31 01:57:02;;;;;;;82.88;52.60;;;17.80;60.40;;;;;;4913091;28;94677;-43
2022/05/31 01:59:32;;;;;;;81.97;52.08;;;17.70;60.00;;;;;;4919676;28;96128;-41
2022/05/31 02:02:00;;;;;;;82.90;52.83;;;17.70;60.10;;;;;;4917495;28;95549;-43
2022/05/31 02:04:26;;;;;;;81.05;52.28;;;17.70;60.10;;;;;;4907267;28;95994;-42
2022/05/31 02:07:10;;;;;;;82.25;51.90;;;17.70;60.30;;;;;;4919706;28;95900;-41
2022/05/31 02:09:37;;;;;;;80.70;52.10;;;17.70;60.10;;;;;;4908725;28;95351;-42
2022/05/31 02:12:04;;;;;;;81.63;52.28;;;17.70;60.00;;;;;;4912477;28;97561;-43
2022/05/31 02:14:29;;;;;;;80.78;52.03;;;17.70;60.30;;;;;;4918735;28;98750;-46
2022/05/31 02:16:55;;;;;;;82.07;52.45;;;17.70;60.30;;;;;;4911354;28;95010;-41
2022/05/31 02:19:25;;;;;;;81.13;51.55;;;17.70;60.20;;;;;;4918731;28;94940;-42
2022/05/31 02:21:53;;;;;;;81.38;52.20;;;17.70;60.40;;;;;;4908405;28;94881;-42
2022/05/31 02:24:19;;;;;;;81.00;51.70;;;17.70;60.00;;;;;;4908759;28;98864;-42
2022/05/31 02:26:45;;;;;;;80.45;51.92;;;17.70;60.00;;;;;;4916156;28;95017;-41
2022/05/31 02:29:15;;;;;;;81.90;52.17;;;17.70;60.30;;;;;;4916662;28;96737;-41
2022/05/31 02:31:41;;;;;;;80.03;51.58;;;17.60;60.10;;;;;;4917336;28;95063;-45
2022/05/31 02:34:08;;;;;;;81.43;52.13;;;17.70;61.10;;;;;;4921726;28;95277;-44
2022/05/31 02:36:34;;;;;;;80.93;51.92;;;17.60;59.90;;;;;;4905240;28;96967;-42
2022/05/31 02:39:00;;;;;;;81.68;51.97;;;17.60;60.40;;;;;;4906593;28;95589;-41
2022/05/31 02:41:28;;;;;;;81.13;52.30;;;17.60;60.50;;;;;;4909003;28;95690;-43
2022/05/31 02:43:55;;;;;;;80.63;51.97;;;17.60;60.20;;;;;;4915036;28;95649;-43
2022/05/31 02:46:21;;;;;;;81.72;52.05;;;17.60;60.40;;;;;;4910299;28;95046;-41
2022/05/31 02:48:47;;;;;;;81.63;52.05;;;17.60;60.10;;;;;;4916597;28;95311;-42
2022/05/31 02:51:13;;;;;;;81.65;52.15;;;17.60;60.20;;;;;;4920641;28;99657;-42
2022/05/31 02:53:38;;;;;;;82.10;52.25;;;17.60;60.10;;;;;;4916492;28;96214;-43
2022/05/31 02:56:04;;;;;;;81.45;52.20;;;17.60;60.40;;;;;;4923969;28;96617;-44
2022/05/31 02:58:30;;;;;;;81.03;51.78;;;17.50;60.10;;;;;;4922876;28;96418;-44
2022/05/31 03:00:55;;;;;;;80.70;51.72;;;17.60;60.20;;;;;;4904420;28;95121;-42
2022/05/31 03:03:21;;;;;;;80.20;51.85;;;17.60;60.20;;;;;;4915357;28;95505;-43
2022/05/31 03:05:47;;;;;;;80.97;52.30;;;17.60;60.00;;;;;;4910286;28;100856;-45
2022/05/31 03:08:13;;;;;;;80.43;51.75;;;17.60;60.30;;;;;;4903049;28;95538;-43
2022/05/31 03:10:45;;;;;;;81.47;52.00;;;17.50;60.30;;;;;;4916873;28;94851;-44
2022/05/31 03:13:14;;;;;;;80.78;52.13;;;17.50;60.20;;;;;;4915621;28;95533;-42
2022/05/31 03:15:40;;;;;;;80.72;51.92;;;17.50;60.40;;;;;;4903416;28;104924;-44
2022/05/31 03:18:13;;;;;;;80.10;51.78;;;17.50;60.10;;;;;;4916368;28;96144;-43
2022/05/31 03:20:48;;;;;;;81.00;52.38;;;17.50;60.40;;;;;;4912546;28;94870;-41
2022/05/31 03:23:25;;;;;;;81.60;51.88;;;17.50;60.50;;;;;;4903635;28;96082;-47
2022/05/31 03:25:53;;;;;;;80.35;51.83;;;17.50;60.60;;;;;;4917880;28;95334;-41
2022/05/31 03:28:20;;;;;;;80.72;52.05;;;17.50;60.30;;;;;;4919406;28;95171;-42
2022/05/31 03:30:45;;;;;;;80.43;51.88;;;17.50;60.40;;;;;;4913051;28;95487;-45
2022/05/31 03:33:13;;;;;;;81.55;51.83;;;17.50;60.50;;;;;;4905473;28;95303;-43
2022/05/31 03:35:39;;;;;;;82.53;52.40;;;17.40;60.90;;;;;;4914670;28;95776;-41
2022/05/31 03:38:05;;;;;;;81.18;51.78;;;17.40;60.30;;;;;;4915188;28;95077;-43
2022/05/31 03:43:15;;;;;;;79.55;51.33;;;17.40;60.30;;;;;;4907830;28;97580;-43
2022/05/31 03:45:43;;;;;;;80.57;51.88;;;17.40;60.40;;;;;;4913110;28;95666;-44
2022/05/31 03:48:10;;;;;;;81.13;51.42;;;17.40;60.50;;;;;;4917846;28;95318;-44
2022/05/31 03:50:39;;;;;;;79.95;51.90;;;17.40;60.10;;;;;;4908561;28;98008;-41
2022/05/31 03:53:09;;;;;;;81.75;52.13;;;17.40;60.50;;;;;;4910133;28;95508;-48
2022/05/31 03:55:44;;;;;;;80.72;51.88;;;17.40;60.70;;;;;;4921339;28;95318;-41
2022/05/31 03:58:10;;;;;;;79.97;51.60;;;17.40;60.50;;;;;;4906178;28;98987;-47
2022/05/31 04:00:36;;;;;;;79.95;51.35;;;17.40;60.60;;;;;;4912529;28;94424;-44
2022/05/31 04:03:01;;;;;;;80.50;52.30;;;17.40;60.30;;;;;;4898868;28;95672;-43
2022/05/31 04:05:28;;;;;;;80.35;51.85;;;17.40;60.40;;;;;;4904255;28;95146;-43
2022/05/31 04:07:55;;;;;;;80.13;51.53;;;17.30;60.50;;;;;;4912183;28;99497;-45
2022/05/31 04:10:21;;;;;;;79.32;51.40;;;17.40;60.40;;;;;;4914895;28;95152;-45
2022/05/31 04:12:47;;;;;;;79.82;51.47;;;17.30;61.40;;;;;;4899547;28;96651;-43
2022/05/31 04:15:13;;;;;;;80.63;51.65;;;17.30;60.70;;;;;;4906446;28;95410;-45
2022/05/31 04:17:39;;;;;;;80.78;51.97;;;17.40;60.50;;;;;;4915328;28;96116;-41
2022/05/31 04:20:06;;;;;;;80.18;52.00;;;17.30;60.20;;;;;;4909158;28;97260;-43
2022/05/31 04:22:32;;;;;;;80.20;52.03;;;17.30;60.90;;;;;;4915425;28;96275;-44
2022/05/31 04:25:01;;;;;;;80.47;51.92;;;17.40;60.30;;;;;;4912103;28;94716;-44
2022/05/31 04:27:27;;;;;;;79.78;51.67;;;17.40;60.50;;;;;;4908891;28;95164;-42
2022/05/31 04:29:53;;;;;;;80.03;51.60;;;17.30;60.40;;;;;;4916553;28;95805;-42
2022/05/31 04:32:19;;;;;;;79.78;51.22;;;17.40;60.40;;;;;;4913005;28;100356;-41
2022/05/31 04:34:44;;;;;;;79.97;51.45;;;17.40;60.10;;;;;;4906902;28;100491;-43
2022/05/31 04:37:11;;;;;;;79.55;51.45;;;17.30;60.20;;;;;;4911282;28;96541;-41
2022/05/31 04:39:36;;;;;;;80.00;51.47;;;17.30;60.30;;;;;;4916050;28;95380;-41
2022/05/31 04:42:02;;;;;;;80.47;51.50;;;17.30;60.60;;;;;;4904149;28;100066;-43
2022/05/31 04:44:28;;;;;;;80.70;51.75;;;17.30;60.60;;;;;;4916765;28;95090;-44
2022/05/31 04:46:54;;;;;;;80.55;51.72;;;17.40;60.40;;;;;;4918527;28;95451;-42
2022/05/31 04:49:20;;;;;;;80.18;51.70;;;17.30;60.20;;;;;;4923754;28;94348;-44
2022/05/31 04:51:46;;;;;;;80.18;51.83;;;17.30;60.10;;;;;;4898654;28;103175;-43
2022/05/31 04:54:12;;;;;;;79.80;51.65;;;17.30;60.60;;;;;;4902070;28;96791;-43
2022/05/31 04:56:38;;;;;;;80.30;51.42;;;17.30;60.60;;;;;;4911016;28;96115;-43
2022/05/31 04:59:04;;;;;;;79.25;51.28;;;17.30;60.50;;;;;;4905593;28;98925;-45
2022/05/31 05:01:30;;;;;;;80.50;51.85;;;17.30;61.20;;;;;;4908112;28;96198;-45
2022/05/31 05:03:56;;;;;;;80.75;52.05;;;17.30;59.90;;;;;;4912464;28;95882;-40
2022/05/31 05:06:22;;;;;;;81.82;51.58;;;17.30;60.00;;;;;;4915685;28;95090;-41
2022/05/31 05:08:48;;;;;;;80.90;51.92;;;17.30;60.60;;;;;;4917003;28;95860;-42
2022/05/31 05:11:17;;;;;;;80.93;51.65;;;17.30;60.50;;;;;;4912692;28;96030;-41
2022/05/31 05:13:44;;;;;;;80.10;51.72;;;17.40;60.20;;;;;;4916494;28;96013;-43
2022/05/31 05:16:12;;;;;;;80.97;51.45;;;17.40;60.50;;;;;;4915287;28;94682;-44
2022/05/31 05:18:38;;;;;;;79.47;51.05;;;17.40;60.10;;;;;;4910716;28;96549;-40
2022/05/31 05:21:07;;;;;;;80.25;51.58;;;17.40;60.40;;;;;;4896964;28;97503;-42
2022/05/31 05:23:33;;;;;;;80.07;51.67;;;17.40;60.30;;;;;;4909822;28;96424;-43
2022/05/31 05:25:59;;;;;;;80.45;51.65;;;17.40;60.40;;;;;;4911316;28;102269;-42
2022/05/31 05:31:40;;;;;;;81.07;52.05;;;17.40;60.10;;;;;;4915684;28;95173;-41
2022/05/31 05:34:06;;;;;;;81.20;52.15;;;17.40;60.20;;;;;;4907127;28;103278;-41
2022/05/31 05:36:32;;;;;;;85.53;52.42;;;17.40;60.30;;;;;;4912643;28;98835;-43
2022/05/31 05:38:57;;;;;;;81.15;51.72;;;17.50;60.10;;;;;;4908224;28;101760;-43
2022/05/31 05:41:24;;;;;;;82.38;52.10;;;17.50;60.70;;;;;;4913435;28;99359;-43
2022/05/31 05:43:50;;;;;;;83.65;52.50;;;17.50;60.00;;;;;;4921478;28;95529;-44
2022/05/31 05:46:27;;;;;;;84.10;51.80;;;17.50;60.00;;;;;;4918624;28;103021;-45
2022/05/31 05:48:53;;;;;;;83.28;52.17;;;17.60;60.20;;;;;;4920099;28;96830;-44
2022/05/31 05:51:23;;;;;;;81.82;52.15;;;17.60;60.00;;;;;;4915478;28;95748;-44
2022/05/31 05:53:50;;;;;;;82.60;52.55;;;17.70;59.90;;;;;;4908497;28;95445;-42
2022/05/31 05:56:16;;;;;;;81.78;52.60;;;17.70;59.90;;;;;;4914759;28;95129;-42
2022/05/31 05:58:42;;;;;;;82.65;52.20;;;17.70;59.70;;;;;;4914502;28;95296;-44
2022/05/31 06:01:26;;;;;;;84.72;52.50;;;17.70;59.70;;;;;;4908965;28;95393;-41
2022/05/31 06:04:09;;;;;;;82.93;52.75;;;17.70;60.00;;;;;;4917218;28;96378;-44
2022/05/31 06:06:38;;;;;;;83.95;52.97;;;17.70;60.20;;;;;;4912899;28;95147;-43
2022/05/31 06:09:19;;;;;;;87.78;52.65;;;17.80;59.90;;;;;;4906362;28;95843;-44
2022/05/31 06:11:49;;;;;;;85.87;53.27;;;17.80;59.70;;;;;;4913610;28;96644;-42
2022/05/31 06:14:25;;;;;;;84.65;52.47;;;17.80;60.30;;;;;;4924230;28;95556;-47
2022/05/31 06:16:57;;;;;;;84.53;52.65;;;17.80;59.70;;;;;;4920334;28;95247;-41
2022/05/31 06:19:31;;;;;;;84.38;52.85;;;17.80;59.50;;;;;;4912395;28;98066;-43
2022/05/31 06:21:58;;;;;;;86.18;53.05;;;17.90;59.50;;;;;;4908925;28;96486;-41
2022/05/31 06:24:23;;;;;;;85.30;53.20;;;17.90;59.30;;;;;;4919525;28;95959;-42
2022/05/31 06:26:49;;;;;;;84.00;52.88;;;17.90;59.00;;;;;;4914556;28;94993;-43
2022/05/31 06:29:15;;;;;;;86.53;53.05;;;17.90;59.20;;;;;;4924246;28;95257;-41
2022/05/31 06:31:40;;;;;;;86.93;52.95;;;18.00;59.30;;;;;;4921590;28;95735;-43
2022/05/31 06:34:06;;;;;;;86.03;52.83;;;18.00;58.70;;;;;;4917931;28;95480;-41
2022/05/31 06:36:32;;;;;;;87.13;53.30;;;18.00;58.90;;;;;;4905777;28;98824;-43
2022/05/31 06:38:57;;;;;;;84.45;52.97;;;18.00;59.00;;;;;;4912846;28;95082;-43
2022/05/31 06:41:23;;;;;;;88.55;53.03;;;18.00;59.10;;;;;;4907655;28;96784;-42
2022/05/31 06:43:49;;;;;;;85.38;53.20;;;18.10;58.70;;;;;;4913396;28;97037;-42
2022/05/31 06:46:15;;;;;;;86.13;53.13;;;18.10;58.80;;;;;;4914024;28;99697;-45
2022/05/31 06:48:41;;;;;;;85.78;53.17;;;18.20;58.70;;;;;;4914232;28;95905;-44
2022/05/31 06:51:09;;;;;;;85.60;53.15;;;18.20;58.60;;;;;;4910832;28;95386;-42
2022/05/31 06:59:04;;;;;;;85.68;53.10;;;18.50;58.10;;;;;;4923980;28;95183;-44
2022/05/31 07:01:37;;;;;;;88.22;53.67;;;18.50;57.80;;;;;;4920229;28;96289;-41
2022/05/31 07:04:03;;;;;;;86.15;53.17;;;18.50;58.00;;;;;;4913702;28;97415;-41
2022/05/31 07:06:32;;;;;;;90.45;54.08;;;18.50;57.70;;;;;;4921208;28;95278;-42
2022/05/31 07:08:57;;;;;;;86.47;53.40;;;18.50;58.20;;;;;;4916650;28;95136;-43
2022/05/31 07:11:23;;;;;;;85.30;53.05;;;18.50;57.90;;;;;;4909106;28;95664;-42
2022/05/31 07:13:49;;;;;;;87.68;53.05;;;18.40;58.10;;;;;;4919987;28;94850;-44
2022/05/31 07:16:15;;;;;;;84.55;52.78;;;18.40;58.10;;;;;;4909764;28;95366;-41
2022/05/31 07:18:41;;;;;;;85.47;52.75;;;18.40;58.20;;;;;;4923007;28;95089;-43
2022/05/31 07:21:07;;;;;;;86.25;52.35;;;18.40;58.30;;;;;;4917509;28;95785;-45
2022/05/31 07:23:32;;;;;;;85.10;53.05;;;18.40;58.40;;;;;;4914357;28;100800;-43
2022/05/31 07:25:59;;;;;;;85.45;52.38;;;18.40;58.50;;;;;;4909112;28;97375;-41
2022/05/31 07:28:28;;;;;;;85.88;53.25;;;18.40;58.60;;;;;;4923964;28;96477;-41
2022/05/31 07:30:54;;;;;;;87.50;53.25;;;18.40;58.50;;;;;;4916015;28;95168;-41
2022/05/31 07:33:20;;;;;;;86.20;52.85;;;18.40;58.20;;;;;;4913315;28;95070;-42
2022/05/31 07:35:46;;;;;;;85.35;52.97;;;18.50;57.90;;;;;;4920607;28;96021;-42
2022/05/31 07:38:11;;;;;;;84.63;53.15;;;18.40;57.90;;;;;;4924342;28;95905;-43
2022/05/31 07:40:37;;;;;;;89.60;53.10;;;18.50;58.30;;;;;;4901099;28;96222;-42
2022/05/31 07:43:03;;;;;;;87.07;52.90;;;18.50;57.90;;;;;;4914647;28;96161;-42
2022/05/31 07:45:28;;;;;;;84.40;52.90;;;18.50;58.00;;;;;;4906540;28;96344;-44
2022/05/31 07:47:54;;;;;;;85.32;53.40;;;18.50;58.20;;;;;;4911955;28;96053;-43
2022/05/31 07:50:20;;;;;;;89.13;53.05;;;18.50;58.00;;;;;;4919478;28;96401;-40
2022/05/31 07:52:46;;;;;;;85.85;53.13;;;18.50;58.20;;;;;;4908903;28;101345;-41
2022/05/31 07:55:11;;;;;;;85.03;53.08;;;18.50;57.90;;;;;;4913783;28;95465;-43
2022/05/31 08:00:22;;;;;;;85.35;53.20;;;18.60;57.70;;;;;;4913553;28;95969;-41
2022/05/31 08:02:48;;;;;;;87.43;52.85;;;18.60;57.50;;;;;;4911658;28;95526;-45
2022/05/31 08:05:14;;;;;;;84.85;52.92;;;18.70;57.90;;;;;;4912979;28;95369;-41
2022/05/31 08:07:40;;;;;;;87.32;53.15;;;18.70;57.80;;;;;;4923050;28;94658;-46
2022/05/31 08:10:08;;;;;;;84.97;53.20;;;18.70;57.70;;;;;;4913974;28;97782;-44
2022/05/31 08:12:33;;;;;;;85.80;53.38;;;18.80;56.80;;;;;;4919230;28;95577;-43
2022/05/31 08:15:00;;;;;;;86.22;53.25;;;18.80;57.50;;;;;;4914767;28;95764;-43
2022/05/31 08:17:26;;;;;;;85.78;53.05;;;18.80;56.60;;;;;;4925683;28;95317;-42
2022/05/31 08:19:54;;;;;;;86.43;53.20;;;18.80;57.10;;;;;;4922708;28;95404;-43
2022/05/31 08:22:20;;;;;;;86.28;53.08;;;18.90;56.70;;;;;;4932281;28;95810;-44
2022/05/31 08:24:46;;;;;;;86.30;53.28;;;18.90;56.70;;;;;;4914445;28;94993;-43
2022/05/31 08:27:13;;;;;;;86.78;53.60;;;19.00;56.70;;;;;;4909950;28;97177;-41
2022/05/31 08:29:39;;;;;;;87.90;53.17;;;19.10;56.70;;;;;;4913998;28;96074;-44
2022/05/31 08:32:06;;;;;;;86.53;53.45;;;19.10;56.80;;;;;;4923631;28;95322;-45
2022/05/31 08:34:32;;;;;;;86.35;53.25;;;19.20;56.70;;;;;;4918016;28;95603;-42
2022/05/31 08:36:57;;;;;;;86.20;53.72;;;19.20;56.90;;;;;;4908922;28;95276;-42
2022/05/31 08:39:23;;;;;;;86.40;52.90;;;19.20;56.70;;;;;;4915610;28;97280;-43
2022/05/31 08:41:52;;;;;;;84.70;52.85;;;19.20;56.60;;;;;;4910977;28;96152;-44
2022/05/31 08:44:36;;;;;;;87.53;53.10;;;19.20;56.70;;;;;;4915426;28;99483;-44
2022/05/31 08:47:05;;;;;;;84.60;53.13;;;19.20;56.90;;;;;;4923282;28;97178;-41
2022/05/31 08:53:02;;;;;;;85.32;52.90;;;19.20;56.60;;;;;;4916500;28;95557;-43
2022/05/31 08:58:34;;;;;;;85.88;53.35;;;19.20;56.20;;;;;;4920155;28;94571;-42
2022/05/31 09:01:02;;;;;;;85.28;53.00;;;19.30;56.20;;;;;;4906374;28;96208;-41
2022/05/31 09:03:40;;;;;;;88.90;53.17;;;19.30;56.80;;;;;;4917525;28;97709;-45
2022/05/31 09:06:15;;;;;;;85.78;52.85;;;19.30;56.50;;;;;;4917326;28;102211;-43
2022/05/31 09:08:40;;;;;;;85.10;52.70;;;19.30;56.20;;;;;;4916912;28;95436;-42
2022/05/31 09:11:28;;;;;;;84.65;52.92;;;19.30;56.00;;;;;;4915689;28;96868;-46
2022/05/31 09:14:02;;;;;;;85.43;52.75;;;19.30;56.20;;;;;;4909751;28;95777;-44
2022/05/31 09:16:33;;;;;;;85.15;52.85;;;19.30;55.90;;;;;;4919487;28;94881;-44
2022/05/31 09:19:00;;;;;;;;;;;19.30;55.60;;;;;;4923813;28;97398;-42
2022/05/31 09:21:42;;;;;;;86.32;52.80;;;19.30;56.30;;;;;;4910871;28;97513;-42
2022/05/31 09:24:13;;;;;;;87.72;52.75;;;19.40;56.30;;;;;;4919707;28;95347;-44
2022/05/31 09:27:12;;;;;;;87.10;53.03;;;19.40;55.60;;;;;;4916478;28;96126;-41
2022/05/31 09:29:57;;;;;;;86.45;53.03;;;19.40;55.80;;;;;;4921502;28;95220;-43
2022/05/31 09:32:34;;;;;;;86.03;53.20;;;19.50;55.60;;;;;;4917860;28;98495;-43
2022/05/31 09:35:00;;;;;;;86.60;52.92;;;19.60;55.70;;;;;;4906932;28;96757;-44
2022/05/31 09:37:37;;;;;;;87.20;53.40;;;19.80;55.20;;;;;;4917199;28;95208;-42
2022/05/31 09:40:07;;;;;;;87.90;53.35;;;19.80;55.40;;;;;;4918164;28;95289;-42
2022/05/31 09:42:40;;;;;;;88.72;53.13;;;19.80;55.10;;;;;;4912741;28;97853;-45
2022/05/31 09:45:17;;;;;;;86.68;53.42;;;19.90;54.70;;;;;;4910149;28;95780;-42
2022/05/31 09:47:43;;;;;;;86.97;53.38;;;20.00;54.90;;;;;;4907738;28;99999;-44
2022/05/31 09:50:09;;;;;;;86.95;53.05;;;20.00;54.80;;;;;;4922141;28;94479;-43
2022/05/31 09:52:45;;;;;;;87.25;53.40;;;20.10;54.70;;;;;;4919327;28;96457;-43
2022/05/31 09:58:08;;;;;;;87.25;53.10;;;20.30;54.20;;;;;;4916824;28;97790;-43
2022/05/31 10:00:57;;;;;;;86.72;53.28;;;20.30;54.00;;;;;;4921874;28;97892;-41
2022/05/31 10:03:39;;;;;;;87.68;52.90;;;20.40;53.70;;;;;;4924371;28;95434;-42
2022/05/31 10:06:15;;;;;;;86.55;53.13;;;20.50;53.70;;;;;;4917873;28;98723;-42
2022/05/31 10:08:41;;;;;;;86.13;52.95;;;20.50;53.50;;;;;;4920723;28;95627;-43
2022/05/31 10:11:12;;;;;;;86.82;52.85;;;20.60;53.10;;;;;;4905902;28;96094;-42
2022/05/31 10:13:44;;;;;;;88.22;53.28;;;20.60;51.90;;;;;;4913734;28;99761;-45
2022/05/31 10:16:10;;;;;;;87.18;53.40;;;20.60;51.80;;;;;;4919642;28;95913;-44
2022/05/31 10:18:47;;;;;;;86.72;53.03;;;20.70;52.20;;;;;;4921585;28;95436;-43
2022/05/31 10:21:43;;;;;;;86.90;53.20;;;20.70;52.50;;;;;;4918854;28;95465;-41
2022/05/31 10:24:41;;;;;;;86.85;53.55;;;20.70;52.00;;;;;;4919967;28;95730;-43
2022/05/31 10:27:13;;;;;;;87.35;53.70;;;20.70;52.10;;;;;;4909148;28;95608;-47
2022/05/31 10:30:00;;;;;;;87.25;53.65;;;20.70;52.70;;;;;;4919887;28;100487;-43
2022/05/31 10:32:33;;;;;;;86.60;53.17;;;20.70;52.30;;;;;;4926381;28;95362;-45
2022/05/31 10:35:17;;;;;;;86.22;53.05;;;20.80;52.20;;;;;;4932008;28;94568;-44
2022/05/31 10:37:49;;;;;;;86.65;53.13;;;20.80;52.00;;;;;;4921902;28;96644;-42
2022/05/31 10:40:19;;;;;;;87.95;53.63;;;20.80;52.50;;;;;;4913989;28;95565;-43
2022/05/31 10:42:48;;;;;;;87.57;53.50;;;20.80;52.50;;;;;;4908831;28;97298;-41
2022/05/31 10:45:26;;;;;;;87.68;53.20;;;20.80;52.50;;;;;;4911310;28;94677;-43
2022/05/31 10:47:55;;;;;;;87.80;53.50;;;20.80;52.30;;;;;;4915484;28;95159;-43
2022/05/31 10:50:33;;;;;;;87.40;53.45;;;20.80;52.10;;;;;;4896329;28;102065;-45
2022/05/31 10:53:29;;;;;;;87.15;53.55;;;20.90;52.10;;;;;;4912617;28;99800;-44
2022/05/31 10:56:46;;;;;;;87.95;53.65;;;20.90;52.00;;;;;;4909500;28;95644;-41
2022/05/31 10:59:18;;;;;;;87.28;53.67;;;21.00;51.90;;;;;;4907828;28;99391;-43
2022/05/31 11:02:12;;;;;;;87.53;53.50;;;21.00;51.80;;;;;;4899905;28;96315;-41
2022/05/31 11:04:57;;;;;;;90.15;53.45;;;21.00;51.80;;;;;;4913623;28;94924;-43
2022/05/31 11:13:59;;;;;;;89.78;53.85;;;21.10;51.50;;;;;;4913414;28;100359;-43
2022/05/31 11:17:00;;;;;;;86.85;53.33;;;21.20;51.60;;;;;;4914532;28;96810;-41
2022/05/31 11:20:03;;;;;;;87.22;53.83;;;21.10;51.60;;;;;;4916152;28;96920;-44
2022/05/31 11:22:53;;;;;;;88.15;53.80;;;21.20;51.80;;;;;;4923896;28;96373;-44
2022/05/31 11:25:37;;;;;;;89.40;54.22;;;21.20;51.70;;;;;;4909965;28;96317;-42
2022/05/31 11:28:23;;;;;;;89.00;53.80;;;21.30;51.60;;;;;;4916462;28;95856;-42
2022/05/31 11:31:13;;;;;;;89.53;54.10;;;21.30;51.60;;;;;;4915882;28;95529;-38
2022/05/31 11:33:50;;;;;;;89.07;54.30;;;21.40;51.50;;;;;;4905232;28;95206;-38
2022/05/31 11:36:31;;;;;;;90.60;54.05;;;21.50;51.40;;;;;;4903152;28;98642;-39
2022/05/31 11:39:03;;;;;;;;;;;21.50;51.50;;;;;;4912970;28;98099;-42
2022/05/31 11:41:42;;;;;;;;;;;21.50;51.50;;;;;;4915171;28;96717;-41
2022/05/31 11:44:34;;;;;;;90.50;53.95;;;21.50;51.40;;;;;;4909247;28;102470;-41
2022/05/31 11:47:27;;;;;;;89.15;53.88;;;21.60;51.40;;;;;;4920350;28;99155;-42
2022/05/31 11:50:07;;;;;;;91.53;54.17;;;21.70;51.30;;;;;;4913267;28;94877;-39
2022/05/31 11:52:38;;;;;;;89.30;53.97;;;21.70;51.20;;;;;;4922571;28;95161;-39
2022/05/31 11:55:31;;;;;;;;;;;21.70;51.20;;;;;;4920183;28;95553;-43
2022/05/31 11:58:33;;;;;;;89.22;54.17;;;21.70;51.10;;;;;;4920688;28;96459;-41
2022/05/31 12:01:02;;;;;;;90.47;54.58;;;21.70;51.10;;;;;;4921893;28;96251;-39
2022/05/31 12:03:38;;;;;;;93.07;54.55;;;21.80;51.10;;;;;;4912234;28;96116;-40
2022/05/31 12:06:18;;;;;;;88.15;53.88;;;21.80;51.10;;;;;;4921341;28;94668;-42
2022/05/31 12:08:58;;;;;;;90.53;54.40;;;21.80;51.20;;;;;;4907200;28;94914;-40
2022/05/31 12:11:34;;;;;;;89.33;54.00;;;21.70;51.40;;;;;;4905059;28;95554;-42
2022/05/31 12:14:01;;;;;;;89.22;54.55;;;21.70;51.50;;;;;;4910170;28;96863;-44
2022/05/31 12:16:29;;;;;;;89.25;54.40;;;21.70;51.50;;;;;;4907264;28;95843;-40
2022/05/31 12:19:06;;;;;;;90.28;54.58;;;21.70;51.50;;;;;;4910909;28;95534;-42
2022/05/31 12:21:37;;;;;;;92.63;54.67;;;21.80;51.50;;;;;;4909350;28;95450;-41
2022/05/31 12:24:14;;;;;;;91.82;54.78;;;21.70;51.60;;;;;;4921082;28;96011;-41
2022/05/31 12:26:45;;;;;;;92.15;54.50;;;21.70;51.60;;;;;;4916635;28;97096;-41
2022/05/31 12:29:18;;;;;;;92.30;55.03;;;21.80;51.60;;;;;;4906456;28;96655;-42
2022/05/31 12:31:43;;;;;;;89.78;54.47;;;21.90;51.40;;;;;;4911095;28;96028;-42
2022/05/31 12:34:21;;;;;;;91.47;54.70;;;21.90;51.20;;;;;;4909140;28;100883;-41
2022/05/31 12:36:56;;;;;;;90.88;54.92;;;22.00;51.10;;;;;;4912528;28;95175;-40
2022/05/31 12:39:27;;;;;;;91.70;54.60;;;21.90;51.20;;;;;;4897187;28;96882;-42
2022/05/31 12:41:53;;;;;;;92.13;54.60;;;21.90;51.10;;;;;;4905266;28;96574;-42
2022/05/31 12:44:34;;;;;;;89.03;54.05;;;21.90;51.20;;;;;;4918616;28;95507;-40
2022/05/31 12:47:11;;;;;;;88.45;54.20;;;21.80;51.30;;;;;;4922738;28;95282;-41
2022/05/31 12:49:49;;;;;;;89.97;54.33;;;21.80;51.40;;;;;;4905230;28;97435;-41
2022/05/31 12:55:33;;;;;;;89.18;54.20;;;21.90;51.30;;;;;;4911006;28;95494;-42
2022/05/31 13:00:51;;;;;;;89.20;54.17;;;21.90;51.30;;;;;;4916493;28;96228;-41
2022/05/31 13:03:32;;;;;;;88.82;53.83;;;21.80;51.30;;;;;;4915266;28;97657;-42
2022/05/31 13:06:11;;;;;;;88.00;53.92;;;21.80;51.50;;;;;;4914478;28;96048;-42
2022/05/31 13:08:51;;;;;;;87.90;53.63;;;21.70;51.60;;;;;;4920639;28;101151;-40
2022/05/31 13:20:00;;;;;;;88.32;53.88;;;21.70;51.70;;;;;;4925249;28;96068;-41
2022/05/31 13:22:26;;;;;;;89.95;54.33;;;21.80;51.40;;;;;;4904526;28;95908;-41
2022/05/31 13:25:02;;;;;;;90.10;54.00;;;21.90;51.30;;;;;;4900149;28;95450;-43
2022/05/31 13:27:30;;;;;;;88.97;54.33;;;21.90;51.20;;;;;;4915481;28;96142;-43
2022/05/31 13:30:08;;;;;;;89.10;54.50;;;21.90;51.10;;;;;;4899051;28;96830;-46
2022/05/31 13:32:35;;;;;;;88.88;54.25;;;22.00;51.00;;;;;;4906049;28;96502;-41
2022/05/31 13:35:16;;;;;;;90.25;54.42;;;22.10;51.00;;;;;;4913099;28;95465;-44